St George Municipal Airport St George US
ICAO: KSGU
IATA: SGU
Category: Medium
Scheduled Services: No

Elevation: 2941 ft
TransAlt. 18000 ft.

Airport Communications:
AWOS 3:135.075
LOS ANGELES CLNC DEL:133.3
LOS ANGELES CNTR:124.2
CEDAR CITY RDO:122.5
CTAF/UNICOM:122.8

KSGU Zoom In..

If you have problems with the map follow the link
https://www.worldairports.se/pages/airport.php?
ICAO=KSGU

Runways:

(A) RW 01 length 9300 ft width 150 ft
---- / hdg 11

(B) RW 19 length 9300 ft width 150 ft
---- / hdg 191

Location; KSGU
Day. 25 / Time. 08.56 Zulu
* Altimeter: 30.11
* Temperature: 05° c. 41°f.
* Wind from: 150° Speed 04 kn.
Dewpoint: -01° c.
Visibility: 10 Statute Miles.
Clouds: Clear (automated report).

KSGU 250856Z AUTO 15004KT 10SM CLR 05/M01 A3011 RMK AO2 SLP193 T00501006 51006


Wind From 150°
Speed 04 kn.

 
 
jpsmedia worldairports.se 2020   terms of use